createdAt,value
2023-04-01T00:00:47.915Z,6.18
2023-04-01T00:01:50.867Z,4.05
2023-04-01T00:02:54.036Z,6.32
2023-04-01T00:03:57.288Z,8.85
2023-04-01T00:04:59.218Z,5.40
2023-04-01T00:06:02.419Z,6.75
2023-04-01T00:07:05.173Z,7.20
2023-04-01T00:08:07.025Z,9.02
2023-04-01T00:09:09.871Z,6.93
2023-04-01T00:10:14.105Z,7.15
2023-04-01T00:11:17.598Z,7.45
2023-04-01T00:12:22.623Z,5.20
2023-04-01T00:13:26.625Z,5.40
2023-04-01T00:14:29.964Z,6.53
2023-04-01T00:15:32.336Z,7.13
2023-04-01T00:16:35.633Z,6.85
2023-04-01T00:17:38.519Z,7.22
2023-04-01T00:18:41.997Z,5.35
2023-04-01T00:19:43.819Z,6.53
2023-04-01T00:20:47.221Z,4.75
2023-04-01T00:21:55.560Z,7.53
2023-04-01T00:22:58.611Z,8.95
2023-04-01T00:24:01.307Z,4.95
2023-04-01T00:25:05.907Z,6.72
2023-04-01T00:26:09.196Z,6.13
2023-04-01T00:27:12.505Z,4.78
2023-04-01T00:28:14.998Z,8.10
2023-04-01T00:29:18.147Z,7.10
2023-04-01T00:30:20.288Z,5.63
2023-04-01T00:31:23.314Z,7.90
2023-04-01T00:32:26.224Z,6.45
2023-04-01T00:33:29.023Z,6.85
2023-04-01T00:34:33.756Z,5.57
2023-04-01T00:35:36.795Z,6.38
2023-04-01T00:36:39.420Z,6.35
2023-04-01T00:37:42.379Z,7.00
2023-04-01T00:38:45.675Z,6.78
2023-04-01T00:39:48.654Z,6.68
2023-04-01T00:40:52.046Z,8.48
2023-04-01T00:41:57.650Z,5.68
2023-04-01T00:42:59.750Z,5.78
2023-04-01T00:44:19.244Z,7.75
2023-04-01T00:45:30.300Z,7.10
2023-04-01T00:46:36.534Z,6.15
2023-04-01T00:47:38.560Z,5.97
2023-04-01T00:48:44.133Z,9.50
2023-04-01T00:49:48.237Z,6.82
2023-04-01T00:50:53.117Z,9.07
2023-04-01T00:51:57.303Z,6.68
2023-04-01T00:53:01.377Z,8.52
2023-04-01T00:54:04.671Z,8.52
2023-04-01T00:55:08.874Z,7.88
2023-04-01T00:56:14.978Z,6.68
2023-04-01T00:57:22.165Z,8.48
2023-04-01T00:58:25.482Z,6.43
2023-04-01T00:59:30.185Z,8.75
2023-04-01T01:00:32.598Z,6.30
2023-04-01T01:01:37.123Z,10.85
2023-04-01T01:02:42.762Z,7.90
2023-04-01T01:03:45.747Z,7.40
2023-04-01T01:04:48.018Z,8.55
2023-04-01T01:06:11.149Z,8.52
2023-04-01T01:07:21.667Z,7.53
2023-04-01T01:08:33.244Z,8.38
2023-04-01T01:09:43.567Z,9.63
2023-04-01T01:10:50.043Z,9.13
2023-04-01T01:11:56.793Z,7.15
2023-04-01T01:13:06.323Z,8.27
2023-04-01T01:14:17.821Z,6.18
2023-04-01T01:15:24.737Z,6.68
2023-04-01T01:16:29.606Z,7.15
2023-04-01T01:17:40.075Z,7.85
2023-04-01T01:18:50.159Z,7.65
2023-04-01T01:20:41.689Z,7.70
2023-04-01T01:21:53.238Z,8.25
2023-04-01T01:23:13.363Z,9.13
2023-04-01T01:24:31.474Z,7.10
2023-04-01T01:25:39.773Z,7.75
2023-04-01T01:26:51.485Z,7.43
2023-04-01T01:28:03.942Z,8.05
2023-04-01T01:29:14.041Z,8.60
2023-04-01T01:30:24.715Z,6.63
2023-04-01T01:31:32.120Z,10.25
2023-04-01T01:32:45.014Z,5.28
2023-04-01T01:33:54.420Z,5.72
2023-04-01T01:35:07.687Z,10.82
2023-04-01T01:36:12.533Z,7.03
2023-04-01T01:37:16.493Z,5.93
2023-04-01T01:38:21.964Z,7.50
2023-04-01T01:39:32.709Z,6.82
2023-04-01T01:40:36.714Z,5.28
2023-04-01T01:41:40.727Z,8.13
2023-04-01T01:42:47.202Z,6.00
2023-04-01T01:43:50.064Z,5.28
2023-04-01T01:44:56.120Z,5.63
2023-04-01T01:45:59.496Z,5.20
2023-04-01T01:47:02.719Z,8.43
2023-04-01T01:48:06.471Z,5.55
2023-04-01T01:49:09.672Z,4.60
2023-04-01T01:50:13.797Z,4.50
2023-04-01T01:51:16.979Z,5.00
2023-04-01T01:52:19.368Z,6.75
2023-04-01T01:53:22.369Z,7.72
2023-04-01T01:54:24.987Z,5.80
2023-04-01T01:55:30.194Z,7.22
2023-04-01T01:56:34.814Z,4.82
2023-04-01T01:57:39.295Z,7.00
2023-04-01T01:58:50.911Z,4.93
2023-04-01T01:59:58.003Z,6.68
2023-04-01T02:01:07.462Z,5.22
2023-04-01T02:02:10.673Z,5.90
2023-04-01T02:03:15.522Z,5.05
2023-04-01T02:04:19.280Z,5.03
2023-04-01T02:05:25.715Z,4.88
2023-04-01T02:06:39.576Z,6.68
2023-04-01T02:07:43.676Z,5.68
2023-04-01T02:08:49.984Z,4.43
2023-04-01T02:09:52.748Z,7.30
2023-04-01T02:10:58.712Z,4.28
2023-04-01T02:12:09.326Z,4.32
2023-04-01T02:13:19.129Z,6.63
2023-04-01T02:14:24.756Z,5.82
2023-04-01T02:15:31.807Z,4.95
2023-04-01T02:16:38.199Z,4.72
2023-04-01T02:17:43.908Z,6.03
2023-04-01T02:18:48.102Z,9.70
2023-04-01T02:19:54.062Z,8.90
2023-04-01T02:21:01.400Z,6.22
2023-04-01T02:22:04.876Z,8.35
2023-04-01T02:23:09.847Z,6.90
2023-04-01T02:24:14.188Z,5.60
2023-04-01T02:25:22.339Z,5.40
2023-04-01T02:26:25.057Z,5.78
2023-04-01T02:27:30.587Z,7.10
2023-04-01T02:28:32.917Z,5.53
2023-04-01T02:29:36.006Z,4.55
2023-04-01T02:30:43.246Z,5.18
2023-04-01T02:31:46.272Z,4.70
2023-04-01T02:32:49.768Z,5.40
2023-04-01T02:33:53.420Z,4.32
2023-04-01T02:34:55.496Z,4.75
2023-04-01T02:36:02.064Z,5.43
2023-04-01T02:37:04.909Z,5.47
2023-04-01T02:38:08.566Z,6.05
2023-04-01T02:39:10.712Z,5.75
2023-04-01T02:40:15.436Z,6.95
2023-04-01T02:41:17.360Z,4.22
2023-04-01T02:42:20.165Z,6.68
2023-04-01T02:43:22.317Z,6.47
2023-04-01T02:44:25.227Z,6.70
2023-04-01T02:45:27.153Z,4.75
2023-04-01T02:46:30.506Z,6.45
2023-04-01T02:47:32.380Z,5.57
2023-04-01T02:48:35.280Z,5.68
2023-04-01T02:49:37.191Z,7.75
2023-04-01T02:50:40.036Z,12.55
2023-04-01T02:51:43.734Z,8.13
2023-04-01T02:52:46.936Z,5.45
2023-04-01T02:53:48.877Z,4.90
2023-04-01T02:54:51.689Z,5.50
2023-04-01T02:55:53.625Z,7.72
2023-04-01T02:56:56.494Z,11.75
2023-04-01T02:57:58.336Z,7.22
2023-04-01T02:59:01.370Z,6.97
2023-04-01T03:00:04.092Z,5.63
2023-04-01T03:01:07.045Z,5.35
2023-04-01T03:02:11.027Z,6.07
2023-04-01T03:03:14.602Z,6.43
2023-04-01T03:04:16.488Z,5.88
2023-04-01T03:05:19.344Z,5.45
2023-04-01T03:06:21.243Z,4.72
2023-04-01T03:07:25.953Z,6.53
2023-04-01T03:08:30.103Z,8.50
2023-04-01T03:09:32.968Z,10.15
2023-04-01T03:10:34.803Z,4.78
2023-04-01T03:11:41.741Z,6.47
2023-04-01T03:12:44.975Z,5.57
2023-04-01T03:13:47.782Z,8.48
2023-04-01T03:14:51.198Z,6.45
2023-04-01T03:15:54.143Z,8.27
2023-04-01T03:16:56.380Z,7.40
2023-04-01T03:18:00.068Z,4.65
2023-04-01T03:19:03.108Z,8.05
2023-04-01T03:20:09.350Z,7.28
2023-04-01T03:21:15.959Z,6.10
2023-04-01T03:22:21.813Z,7.00
2023-04-01T03:23:25.644Z,8.02
2023-04-01T03:24:28.872Z,9.02
2023-04-01T03:25:31.728Z,10.02
2023-04-01T03:26:35.253Z,7.00
2023-04-01T03:27:37.426Z,6.40
2023-04-01T03:28:42.235Z,6.15
2023-04-01T03:29:44.141Z,7.93
2023-04-01T03:30:49.585Z,8.27
2023-04-01T03:31:51.534Z,5.22
2023-04-01T03:32:54.660Z,5.70
2023-04-01T03:33:59.810Z,7.57
2023-04-01T03:35:03.810Z,8.77
2023-04-01T03:36:07.383Z,6.45
2023-04-01T03:37:10.509Z,8.50
2023-04-01T03:38:12.310Z,6.28
2023-04-01T03:39:19.647Z,8.00
2023-04-01T03:40:22.054Z,9.07
2023-04-01T03:41:24.953Z,8.57
2023-04-01T03:42:26.869Z,8.82
2023-04-01T03:43:30.316Z,6.22
2023-04-01T03:44:34.068Z,7.70
2023-04-01T03:45:36.324Z,6.93
2023-04-01T03:46:40.143Z,7.03
2023-04-01T03:47:42.079Z,6.68
2023-04-01T03:48:44.951Z,7.28
2023-04-01T03:49:47.363Z,8.23
2023-04-01T03:50:50.811Z,9.23
2023-04-01T03:51:52.781Z,6.40
2023-04-01T03:52:59.180Z,7.00
2023-04-01T03:54:01.969Z,6.03
2023-04-01T03:55:06.055Z,7.88
2023-04-01T03:56:12.108Z,9.95
2023-04-01T03:57:14.187Z,9.40
2023-04-01T03:58:17.538Z,7.60
2023-04-01T03:59:21.081Z,8.25
2023-04-01T04:00:24.209Z,7.70
2023-04-01T04:01:33.290Z,7.63
2023-04-01T04:02:40.453Z,6.57
2023-04-01T04:03:45.130Z,5.78
2023-04-01T04:04:48.637Z,8.93
2023-04-01T04:05:52.446Z,6.35
2023-04-01T04:06:55.823Z,7.63
2023-04-01T04:07:58.803Z,8.30
2023-04-01T04:09:02.000Z,7.53
2023-04-01T04:10:08.697Z,8.38
2023-04-01T04:11:12.423Z,9.00
2023-04-01T04:12:19.877Z,7.65
2023-04-01T04:13:22.344Z,9.60
2023-04-01T04:14:32.246Z,9.68
2023-04-01T04:15:35.860Z,8.75
2023-04-01T04:16:44.472Z,9.35
2023-04-01T04:17:47.387Z,10.38
2023-04-01T04:18:52.126Z,9.30
2023-04-01T04:19:54.404Z,8.70
2023-04-01T04:20:58.061Z,10.00
2023-04-01T04:22:02.769Z,10.57
2023-04-01T04:23:06.150Z,7.72
2023-04-01T04:24:08.294Z,9.15
2023-04-01T04:25:32.703Z,11.95
2023-04-01T04:26:36.094Z,6.45
2023-04-01T04:27:40.021Z,9.07
2023-04-01T04:28:45.056Z,9.27
2023-04-01T04:29:49.098Z,9.02
2023-04-01T04:30:52.080Z,8.32
2023-04-01T04:32:01.161Z,7.80
2023-04-01T04:33:04.963Z,7.65
2023-04-01T04:34:07.497Z,8.38
2023-04-01T04:35:13.118Z,7.28
2023-04-01T04:36:24.029Z,9.20
2023-04-01T04:37:28.571Z,6.20
2023-04-01T04:38:36.122Z,8.32
2023-04-01T04:39:39.296Z,7.13
2023-04-01T04:40:44.039Z,7.28
2023-04-01T04:41:48.023Z,7.32
2023-04-01T04:42:51.373Z,6.35
2023-04-01T04:43:56.073Z,7.63
2023-04-01T04:44:59.664Z,7.88
2023-04-01T04:46:06.999Z,10.02
2023-04-01T04:47:09.277Z,5.82
2023-04-01T04:48:17.233Z,6.47
2023-04-01T04:49:21.297Z,6.82
2023-04-01T04:50:26.441Z,7.45
2023-04-01T04:51:34.942Z,7.80
2023-04-01T04:52:36.979Z,7.55
2023-04-01T04:53:39.923Z,10.35
2023-04-01T04:54:44.097Z,6.50
2023-04-01T04:55:49.506Z,6.32
2023-04-01T04:57:30.738Z,7.97
2023-04-01T04:58:37.423Z,9.85
2023-04-01T04:59:41.212Z,9.45
2023-04-01T05:00:54.938Z,6.32
2023-04-01T05:02:04.896Z,7.63
2023-04-01T05:03:07.197Z,5.47
2023-04-01T05:04:10.837Z,5.45
2023-04-01T05:05:13.367Z,7.82
2023-04-01T05:06:19.762Z,7.90
2023-04-01T05:07:22.688Z,6.57
2023-04-01T05:08:26.458Z,6.22
2023-04-01T05:09:28.500Z,6.78
2023-04-01T05:10:32.485Z,7.10
2023-04-01T05:11:42.142Z,5.22
2023-04-01T05:12:44.788Z,8.27
2023-04-01T05:13:52.464Z,9.23
2023-04-01T05:14:54.569Z,7.15
2023-04-01T05:15:58.062Z,7.65
2023-04-01T05:17:04.093Z,6.68
2023-04-01T05:18:07.405Z,7.88
2023-04-01T05:19:10.608Z,11.57
2023-04-01T05:20:14.692Z,6.18
2023-04-01T05:21:17.193Z,11.60
2023-04-01T05:22:25.047Z,7.57
2023-04-01T05:23:27.221Z,6.60
2023-04-01T05:24:30.464Z,7.90
2023-04-01T05:25:32.809Z,6.70
2023-04-01T05:26:35.999Z,8.50
2023-04-01T05:27:42.211Z,6.10
2023-04-01T05:28:44.355Z,5.50
2023-04-01T05:29:47.227Z,6.20
2023-04-01T05:31:13.106Z,7.40
2023-04-01T05:32:17.971Z,7.05
2023-04-01T05:33:22.271Z,7.28
2023-04-01T05:34:24.462Z,7.35
2023-04-01T05:35:27.423Z,6.50
2023-04-01T05:36:32.974Z,6.43
2023-04-01T05:37:36.234Z,7.80
2023-04-01T05:38:41.800Z,7.95
2023-04-01T05:39:47.895Z,6.97
2023-04-01T05:40:50.757Z,6.82
2023-04-01T05:41:53.022Z,6.03
2023-04-01T05:42:57.335Z,5.63
2023-04-01T05:43:59.449Z,5.93
2023-04-01T05:45:16.404Z,5.82
2023-04-01T05:46:24.050Z,6.10
2023-04-01T05:47:33.994Z,6.05
2023-04-01T05:48:36.530Z,4.38
2023-04-01T05:49:40.270Z,7.85
2023-04-01T05:50:42.639Z,6.45
2023-04-01T05:51:47.030Z,5.65
2023-04-01T05:53:15.146Z,7.07
2023-04-01T05:54:19.336Z,6.30
2023-04-01T05:55:22.642Z,6.60
2023-04-01T05:56:26.290Z,5.75
2023-04-01T05:57:30.092Z,5.47
2023-04-01T05:58:33.655Z,10.20
2023-04-01T05:59:36.998Z,6.68
2023-04-01T06:00:38.982Z,8.45
2023-04-01T06:01:42.253Z,5.78
2023-04-01T06:02:45.536Z,6.22
2023-04-01T06:03:48.603Z,6.88
2023-04-01T06:05:11.742Z,5.30
2023-04-01T06:06:17.301Z,10.23
2023-04-01T06:07:21.799Z,8.43
2023-04-01T06:08:24.556Z,8.13
2023-04-01T06:09:30.119Z,8.85
2023-04-01T06:10:41.231Z,7.75
2023-04-01T06:12:10.352Z,7.35
2023-04-01T06:13:36.436Z,7.82
2023-04-01T06:14:44.614Z,6.95
2023-04-01T06:15:53.933Z,6.50
2023-04-01T06:17:07.675Z,10.02
2023-04-01T06:18:46.911Z,8.98
2023-04-01T06:20:00.310Z,6.05
2023-04-01T06:21:07.722Z,6.50
2023-04-01T06:22:21.878Z,6.32
2023-04-01T06:23:39.555Z,5.15
2023-04-01T06:24:56.049Z,7.03
2023-04-01T06:26:12.561Z,6.15
2023-04-01T06:27:24.115Z,6.38
2023-04-01T06:29:01.814Z,10.77
2023-04-01T06:30:20.234Z,7.78
2023-04-01T06:31:34.038Z,9.48
2023-04-01T06:33:01.465Z,7.80
2023-04-01T06:34:14.306Z,6.10
2023-04-01T06:35:38.967Z,7.50
2023-04-01T06:36:53.638Z,4.50
2023-04-01T06:38:10.699Z,7.25
2023-04-01T06:39:39.497Z,7.60
2023-04-01T06:41:19.987Z,7.78
2023-04-01T06:42:34.437Z,5.35
2023-04-01T06:43:51.432Z,4.80
2023-04-01T06:45:04.231Z,5.38
2023-04-01T06:46:33.898Z,5.22
2023-04-01T06:48:04.946Z,7.82
2023-04-01T06:49:51.446Z,5.20
2023-04-01T06:51:21.039Z,5.70
2023-04-01T06:52:55.014Z,4.10
2023-04-01T06:54:19.996Z,5.55
2023-04-01T06:56:00.405Z,6.10
2023-04-01T06:57:24.194Z,4.15
2023-04-01T06:58:34.292Z,4.85
2023-04-01T06:59:39.417Z,4.20
2023-04-01T07:00:44.622Z,5.70
2023-04-01T07:02:23.826Z,6.32
2023-04-01T07:03:55.704Z,6.15
2023-04-01T07:04:59.516Z,5.22
2023-04-01T07:06:06.285Z,3.78
2023-04-01T07:07:16.842Z,7.22
2023-04-01T07:08:30.857Z,5.03
2023-04-01T07:09:36.541Z,8.32
2023-04-01T07:11:00.978Z,4.80
2023-04-01T07:12:39.749Z,3.65
2023-04-01T07:14:10.925Z,6.30
2023-04-01T07:15:18.771Z,4.30
2023-04-01T07:16:29.091Z,4.93
2023-04-01T07:17:40.928Z,3.67
2023-04-01T07:18:50.534Z,4.70
2023-04-01T07:19:55.827Z,5.07
2023-04-01T07:20:58.709Z,6.43
2023-04-01T07:22:04.057Z,14.60
2023-04-01T07:23:24.660Z,15.45
2023-04-01T07:24:36.139Z,9.65
2023-04-01T07:25:43.358Z,10.63
2023-04-01T07:27:18.627Z,7.47
2023-04-01T07:28:21.154Z,12.02
2023-04-01T07:29:32.753Z,10.77
2023-04-01T07:30:46.319Z,14.07
2023-04-01T07:32:09.961Z,11.20
2023-04-01T07:33:17.056Z,6.88
2023-04-01T07:34:25.042Z,7.90
2023-04-01T07:35:40.001Z,6.35
2023-04-01T07:36:48.082Z,8.60
2023-04-01T07:38:03.590Z,6.40
2023-04-01T07:39:13.967Z,3.40
2023-04-01T07:40:36.068Z,7.05
2023-04-01T07:41:48.522Z,6.25
2023-04-01T07:43:14.484Z,6.10
2023-04-01T07:44:31.627Z,5.15
2023-04-01T07:45:39.551Z,7.25
2023-04-01T07:46:51.019Z,4.50
2023-04-01T07:48:10.720Z,4.55
2023-04-01T07:49:16.643Z,6.28
2023-04-01T07:50:31.595Z,5.90
2023-04-01T07:51:41.560Z,7.97
2023-04-01T07:52:53.182Z,6.57
2023-04-01T07:54:10.236Z,8.00
2023-04-01T07:55:16.413Z,9.20
2023-04-01T07:56:23.680Z,11.32
2023-04-01T07:57:34.161Z,7.50
2023-04-01T07:58:45.529Z,10.63
2023-04-01T08:00:01.881Z,12.75
2023-04-01T08:01:34.944Z,7.30
2023-04-01T08:02:50.862Z,7.25
2023-04-01T08:04:19.413Z,6.55
2023-04-01T08:05:28.144Z,21.08
2023-04-01T08:06:34.736Z,13.85
2023-04-01T08:07:44.749Z,10.43
2023-04-01T08:09:12.424Z,14.98
2023-04-01T08:10:39.450Z,9.13
2023-04-01T08:12:09.334Z,14.43
2023-04-01T08:13:49.209Z,6.88
2023-04-01T08:15:17.499Z,5.38
2023-04-01T08:16:35.622Z,11.75
2023-04-01T08:17:50.188Z,9.38
2023-04-01T08:19:02.344Z,6.70
2023-04-01T08:20:17.102Z,11.10
2023-04-01T08:21:22.885Z,7.72
2023-04-01T08:22:30.273Z,11.23
2023-04-01T08:23:40.045Z,10.95
2023-04-01T08:24:47.587Z,9.05
2023-04-01T08:26:02.521Z,5.55
2023-04-01T08:27:28.570Z,6.47
2023-04-01T08:28:33.763Z,10.40
2023-04-01T08:31:03.569Z,13.90
2023-04-01T08:32:11.451Z,20.25
2023-04-01T08:33:18.487Z,8.98
2023-04-01T08:34:34.562Z,8.00
2023-04-01T08:36:16.941Z,13.85
2023-04-01T08:38:26.813Z,6.32
2023-04-01T08:39:57.851Z,9.60
2023-04-01T08:44:21.862Z,10.40
2023-04-01T08:48:38.436Z,6.30
2023-04-01T08:52:47.254Z,4.70
2023-04-01T08:54:02.835Z,6.03
2023-04-01T08:55:40.334Z,5.72
2023-04-01T08:56:54.810Z,3.63
2023-04-01T08:58:14.994Z,9.77
2023-04-01T09:00:44.617Z,3.70
2023-04-01T09:05:20.131Z,6.85
2023-04-01T09:06:30.519Z,17.20
2023-04-01T09:07:44.672Z,9.05
2023-04-01T09:09:19.301Z,5.97
2023-04-01T09:10:50.360Z,5.43
2023-04-01T09:12:38.336Z,4.97
2023-04-01T09:13:51.715Z,8.82
2023-04-01T09:18:16.388Z,5.30
2023-04-01T09:19:31.447Z,5.15
2023-04-01T09:21:08.762Z,5.47
2023-04-01T09:22:26.749Z,5.60
2023-04-01T09:23:55.430Z,5.75
2023-04-01T09:25:18.430Z,4.85
2023-04-01T09:26:34.190Z,5.68
2023-04-01T09:27:55.469Z,3.60
2023-04-01T09:29:16.157Z,4.00
2023-04-01T09:30:34.668Z,3.67
2023-04-01T09:32:13.187Z,4.60
2023-04-01T09:33:48.349Z,4.25
2023-04-01T09:34:59.742Z,4.10
2023-04-01T09:36:18.080Z,3.10
2023-04-01T09:37:22.868Z,4.05
2023-04-01T09:38:38.369Z,3.20
2023-04-01T09:39:51.424Z,3.13
2023-04-01T09:43:19.295Z,3.38
2023-04-01T09:44:24.960Z,3.60
2023-04-01T09:45:48.510Z,3.72
2023-04-01T09:47:03.437Z,2.90
2023-04-01T09:48:21.222Z,7.85
2023-04-01T09:49:39.252Z,3.92
2023-04-01T09:50:49.543Z,32.22
2023-04-01T09:52:03.949Z,8.15
2023-04-01T09:53:30.358Z,3.60
2023-04-01T09:54:56.431Z,3.75
2023-04-01T09:56:25.194Z,2.58
2023-04-01T09:58:14.382Z,3.55
2023-04-01T10:00:17.972Z,4.35
2023-04-01T10:02:08.487Z,3.50
2023-04-01T10:03:56.444Z,3.50
2023-04-01T10:05:39.709Z,4.72
2023-04-01T10:07:13.311Z,3.95
2023-04-01T10:08:53.177Z,3.92
2023-04-01T10:10:45.665Z,4.05
2023-04-01T10:12:24.476Z,4.85
2023-04-01T10:14:04.856Z,4.72
2023-04-01T10:15:48.100Z,5.93
2023-04-01T10:17:24.364Z,7.50
2023-04-01T10:18:59.146Z,9.70
2023-04-01T10:20:59.829Z,6.75
2023-04-01T10:22:58.666Z,7.90
2023-04-01T10:24:15.846Z,7.38
2023-04-01T10:25:34.672Z,5.82
2023-04-01T10:27:26.747Z,5.68
2023-04-01T10:29:22.106Z,6.20
2023-04-01T10:30:54.802Z,5.20
2023-04-01T10:32:41.844Z,7.20
2023-04-01T10:34:33.950Z,7.43
2023-04-01T10:36:03.162Z,8.13
2023-04-01T10:37:11.987Z,20.13
2023-04-01T10:38:39.169Z,9.77
2023-04-01T10:40:07.072Z,12.55
2023-04-01T10:44:32.320Z,7.57
2023-04-01T10:46:09.552Z,11.85
2023-04-01T10:47:43.134Z,14.43
2023-04-01T10:49:17.869Z,8.82
2023-04-01T10:50:38.135Z,22.17
2023-04-01T10:52:06.757Z,9.80
2023-04-01T10:53:45.336Z,10.70
2023-04-01T10:55:22.710Z,6.30
2023-04-01T10:56:59.616Z,10.13
2023-04-01T10:58:46.248Z,16.17
2023-04-01T11:00:51.516Z,7.15
2023-04-01T11:03:09.793Z,7.60
2023-04-01T11:04:44.089Z,8.15
2023-04-01T11:06:44.545Z,11.32
2023-04-01T11:08:26.691Z,9.95
2023-04-01T11:10:17.557Z,11.52
2023-04-01T11:12:05.017Z,6.50
2023-04-01T11:13:48.332Z,3.85
2023-04-01T11:15:23.679Z,6.45
2023-04-01T11:16:53.811Z,3.47
2023-04-01T11:18:38.334Z,3.90
2023-04-01T11:20:26.505Z,3.92
2023-04-01T11:21:56.829Z,4.07
2023-04-01T11:23:24.845Z,3.53
2023-04-01T11:25:15.195Z,3.13
2023-04-01T11:28:39.351Z,3.17
2023-04-01T11:30:13.374Z,4.60
2023-04-01T11:31:32.534Z,4.00
2023-04-01T11:32:43.185Z,3.08
2023-04-01T11:33:59.387Z,2.17
2023-04-01T11:35:20.582Z,2.63
2023-04-01T11:36:32.148Z,2.35
2023-04-01T11:38:01.780Z,2.88
2023-04-01T11:39:29.199Z,2.40
2023-04-01T11:40:45.951Z,3.33
2023-04-01T11:42:20.749Z,2.38
2023-04-01T11:44:17.867Z,3.30
2023-04-01T11:46:06.625Z,2.15
2023-04-01T11:48:19.649Z,3.38
2023-04-01T11:49:33.306Z,4.32
2023-04-01T11:51:05.070Z,2.75
2023-04-01T11:52:50.871Z,2.28
2023-04-01T11:53:59.151Z,2.30
2023-04-01T11:55:17.735Z,2.40
2023-04-01T11:56:40.858Z,2.65
2023-04-01T11:57:54.745Z,1.95
2023-04-01T11:59:54.895Z,5.80
2023-04-01T12:01:40.095Z,9.45
2023-04-01T12:02:50.993Z,4.75
2023-04-01T12:04:36.025Z,6.97
2023-04-01T12:05:44.921Z,4.82
2023-04-01T12:06:53.269Z,2.90
2023-04-01T12:08:24.907Z,3.80
2023-04-01T12:09:34.468Z,2.95
2023-04-01T12:10:42.279Z,2.63
2023-04-01T12:11:52.560Z,3.20
2023-04-01T12:13:04.633Z,2.50
2023-04-01T12:14:11.920Z,2.42
2023-04-01T12:15:27.855Z,2.88
2023-04-01T12:16:48.009Z,2.33
2023-04-01T12:17:54.154Z,2.20
2023-04-01T12:19:00.840Z,2.95
2023-04-01T12:20:24.276Z,2.33
2023-04-01T12:21:30.978Z,3.85
2023-04-01T12:22:46.413Z,2.33
2023-04-01T12:24:11.736Z,3.35
2023-04-01T12:25:24.999Z,2.08
2023-04-01T12:26:34.870Z,5.75
2023-04-01T12:27:43.229Z,5.32
2023-04-01T12:28:57.123Z,3.80
2023-04-01T12:30:12.187Z,3.95
2023-04-01T12:31:35.432Z,3.75
2023-04-01T12:34:33.353Z,5.47
2023-04-01T12:35:48.614Z,4.03
2023-04-01T12:37:01.656Z,4.00
2023-04-01T12:38:19.797Z,4.32
2023-04-01T12:40:19.352Z,5.57
2023-04-01T12:41:40.585Z,3.85
2023-04-01T12:42:59.048Z,4.03
2023-04-01T12:44:13.747Z,5.25
2023-04-01T12:45:29.936Z,4.85
2023-04-01T12:46:34.252Z,4.60
2023-04-01T12:48:00.218Z,5.80
2023-04-01T12:49:22.303Z,5.13
2023-04-01T12:50:41.576Z,4.00
2023-04-01T12:52:07.366Z,5.00
2023-04-01T12:53:26.714Z,6.13
2023-04-01T12:54:54.611Z,3.33
2023-04-01T12:56:02.687Z,5.05
2023-04-01T12:57:20.354Z,3.60
2023-04-01T13:00:37.216Z,5.50
2023-04-01T13:03:48.489Z,10.50
2023-04-01T13:05:15.647Z,6.00
2023-04-01T13:06:28.875Z,6.32
2023-04-01T13:07:47.531Z,6.75
2023-04-01T13:09:14.892Z,5.53
2023-04-01T13:10:40.357Z,5.57
2023-04-01T13:11:53.552Z,6.43
2023-04-01T13:13:24.110Z,5.35
2023-04-01T13:14:39.103Z,4.03
2023-04-01T13:15:44.505Z,2.90
2023-04-01T13:16:49.520Z,3.00
2023-04-01T13:17:56.282Z,3.92
2023-04-01T13:19:03.547Z,6.28
2023-04-01T13:20:14.149Z,5.43
2023-04-01T13:21:21.296Z,3.47
2023-04-01T13:22:27.932Z,4.43
2023-04-01T13:23:37.940Z,4.40
2023-04-01T13:24:46.195Z,3.53
2023-04-01T13:26:07.076Z,3.78
2023-04-01T13:27:23.220Z,3.38
2023-04-01T13:28:27.541Z,3.65
2023-04-01T13:29:34.046Z,4.38
2023-04-01T13:30:41.256Z,3.40
2023-04-01T13:31:59.427Z,4.13
2023-04-01T13:33:07.395Z,3.25
2023-04-01T13:34:25.743Z,3.03
2023-04-01T13:35:35.590Z,4.10
2023-04-01T13:36:46.400Z,3.08
2023-04-01T13:38:01.822Z,3.20
2023-04-01T13:39:20.094Z,4.18
2023-04-01T13:40:32.767Z,3.03
2023-04-01T13:41:48.709Z,3.30
2023-04-01T13:42:54.759Z,4.20
2023-04-01T13:44:09.270Z,3.60
2023-04-01T13:45:18.043Z,4.53
2023-04-01T13:46:51.049Z,4.53
2023-04-01T13:48:20.393Z,4.90
2023-04-01T13:49:42.170Z,3.83
2023-04-01T13:51:07.008Z,4.03
2023-04-01T13:52:27.731Z,5.50
2023-04-01T13:54:00.792Z,13.05
2023-04-01T13:55:37.690Z,7.18
2023-04-01T13:56:53.161Z,5.78
2023-04-01T13:58:13.309Z,5.82
2023-04-01T13:59:33.920Z,5.68
2023-04-01T14:00:55.578Z,5.93
2023-04-01T14:02:33.654Z,5.85
2023-04-01T14:03:56.647Z,3.97
2023-04-01T14:05:15.468Z,2.78
2023-04-01T14:06:22.306Z,2.60
2023-04-01T14:07:51.574Z,3.80
2023-04-01T14:09:06.874Z,3.47
2023-04-01T14:10:19.390Z,3.10
2023-04-01T14:11:29.666Z,4.95
2023-04-01T14:12:36.584Z,6.00
2023-04-01T14:13:44.466Z,8.27
2023-04-01T14:14:57.123Z,5.38
2023-04-01T14:16:14.485Z,5.72
2023-04-01T14:17:32.558Z,5.05
2023-04-01T14:18:56.005Z,5.32
2023-04-01T14:20:17.153Z,3.00
2023-04-01T14:21:26.251Z,5.80
2023-04-01T14:22:36.288Z,3.55
2023-04-01T14:23:56.372Z,3.03
2023-04-01T14:25:23.889Z,4.50
2023-04-01T14:26:40.539Z,5.05
2023-04-01T14:27:48.805Z,3.47
2023-04-01T14:29:45.691Z,5.75
2023-04-01T14:31:17.660Z,2.30
2023-04-01T14:32:26.121Z,2.20
2023-04-01T14:33:38.031Z,1.65
2023-04-01T14:34:52.680Z,2.92
2023-04-01T14:36:20.052Z,1.77
2023-04-01T14:38:08.996Z,2.17
2023-04-01T14:39:24.662Z,2.55
2023-04-01T14:40:41.573Z,2.35
2023-04-01T14:41:51.305Z,1.73
2023-04-01T14:43:03.503Z,2.30
2023-04-01T14:44:23.770Z,1.70
2023-04-01T14:45:53.870Z,2.35
2023-04-01T14:47:30.949Z,2.05
2023-04-01T14:48:34.244Z,2.00
2023-04-01T14:49:40.453Z,1.90
2023-04-01T14:50:43.931Z,2.45
2023-04-01T14:51:48.037Z,2.55
2023-04-01T14:52:58.755Z,2.78
2023-04-01T14:54:06.398Z,2.58
2023-04-01T14:55:32.204Z,1.92
2023-04-01T14:56:41.396Z,3.03
2023-04-01T14:58:01.241Z,2.47
2023-04-01T14:59:10.164Z,3.80
2023-04-01T15:00:16.075Z,3.28
2023-04-01T15:01:28.403Z,3.70
2023-04-01T15:02:49.135Z,5.63
2023-04-01T15:03:57.044Z,3.25
2023-04-01T15:05:06.277Z,4.22
2023-04-01T15:06:45.772Z,4.95
2023-04-01T15:08:02.089Z,10.18
2023-04-01T15:09:09.462Z,6.20
2023-04-01T15:10:23.979Z,5.57
2023-04-01T15:11:40.032Z,6.95
2023-04-01T15:12:52.384Z,5.88
2023-04-01T15:14:20.231Z,5.90
2023-04-01T15:15:31.023Z,5.90
2023-04-01T15:16:41.873Z,6.53
2023-04-01T15:18:00.428Z,11.23
2023-04-01T15:19:15.080Z,11.70
2023-04-01T15:20:27.508Z,14.93
2023-04-01T15:21:42.735Z,9.68
2023-04-01T15:22:54.741Z,11.80
2023-04-01T15:24:02.542Z,7.90
2023-04-01T15:25:21.010Z,8.30
2023-04-01T15:26:53.917Z,5.25
2023-04-01T15:28:02.716Z,6.35
2023-04-01T15:29:31.263Z,6.45
2023-04-01T15:30:36.620Z,6.90
2023-04-01T15:31:41.749Z,7.88
2023-04-01T15:32:52.348Z,6.20
2023-04-01T15:34:07.967Z,10.27
2023-04-01T15:35:21.699Z,19.90
2023-04-01T15:36:31.148Z,13.13
2023-04-01T15:37:40.221Z,6.70
2023-04-01T15:38:46.590Z,7.57
2023-04-01T15:39:56.654Z,13.27
2023-04-01T15:41:05.003Z,15.25
2023-04-01T15:42:31.071Z,10.10
2023-04-01T15:43:42.473Z,10.55
2023-04-01T15:45:09.243Z,8.65
2023-04-01T15:46:38.665Z,11.85
2023-04-01T15:47:42.612Z,10.77
2023-04-01T15:49:18.174Z,8.88
2023-04-01T15:50:35.493Z,11.13
2023-04-01T15:51:49.948Z,10.25
2023-04-01T15:53:03.338Z,9.32
2023-04-01T15:54:27.937Z,10.80
2023-04-01T15:55:33.884Z,10.57
2023-04-01T15:56:56.341Z,11.50
2023-04-01T15:58:18.266Z,10.48
2023-04-01T15:59:32.253Z,11.32
2023-04-01T16:00:45.186Z,11.18
2023-04-01T16:01:52.933Z,11.20
2023-04-01T16:03:13.393Z,11.10
2023-04-01T16:04:29.869Z,11.00
2023-04-01T16:05:39.631Z,12.55
2023-04-01T16:06:59.116Z,12.15
2023-04-01T16:08:13.084Z,11.20
2023-04-01T16:09:28.247Z,12.65
2023-04-01T16:10:38.646Z,12.02
2023-04-01T16:11:47.447Z,10.60
2023-04-01T16:12:58.667Z,12.82
2023-04-01T16:14:11.863Z,9.30
2023-04-01T16:15:25.628Z,14.75
2023-04-01T16:16:37.331Z,19.70
2023-04-01T16:17:57.879Z,20.63
2023-04-01T16:19:13.753Z,31.88
2023-04-01T16:20:21.165Z,16.90
2023-04-01T16:21:36.542Z,25.30
2023-04-01T16:22:42.107Z,18.92
2023-04-01T16:23:50.595Z,24.48
2023-04-01T16:24:58.490Z,18.73
2023-04-01T16:26:07.112Z,17.08
2023-04-01T16:27:14.837Z,19.58
2023-04-01T16:28:23.311Z,12.95
2023-04-01T16:29:36.068Z,15.60
2023-04-01T16:30:42.469Z,17.17
2023-04-01T16:31:47.733Z,13.23
2023-04-01T16:32:52.273Z,19.20
2023-04-01T16:33:59.788Z,21.02
2023-04-01T16:35:18.607Z,18.55
2023-04-01T16:36:28.615Z,15.18
2023-04-01T16:37:35.363Z,17.10
2023-04-01T16:38:40.873Z,21.00
2023-04-01T16:39:47.680Z,20.75
2023-04-01T16:41:01.371Z,14.25
2023-04-01T16:42:26.147Z,22.88
2023-04-01T16:43:31.237Z,16.83
2023-04-01T16:44:47.976Z,21.45
2023-04-01T16:46:08.665Z,15.85
2023-04-01T16:47:14.051Z,15.13
2023-04-01T16:48:19.096Z,18.30